createdAt,value
2022-08-10T00:01:51.360Z,5.00
2022-08-10T00:04:21.530Z,5.33
2022-08-10T00:06:51.327Z,5.17
2022-08-10T00:09:21.511Z,5.07
2022-08-10T00:11:49.892Z,5.17
2022-08-10T00:14:18.250Z,5.03
2022-08-10T00:16:46.448Z,5.17
2022-08-10T00:19:16.646Z,4.63
2022-08-10T00:21:47.324Z,4.90
2022-08-10T00:24:16.160Z,5.23
2022-08-10T00:27:51.631Z,5.10
2022-08-10T00:29:34.231Z,5.10
2022-08-10T00:32:02.922Z,5.73
2022-08-10T00:34:31.895Z,6.00
2022-08-10T00:37:01.030Z,6.30
2022-08-10T00:39:30.507Z,6.50
2022-08-10T00:42:08.264Z,5.97
2022-08-10T00:44:38.048Z,5.70
2022-08-10T00:47:07.077Z,5.17
2022-08-10T00:49:45.913Z,5.10
2022-08-10T00:52:15.480Z,5.60
2022-08-10T00:54:44.595Z,5.80
2022-08-10T00:57:18.588Z,5.77
2022-08-10T00:59:58.645Z,5.63
2022-08-10T01:02:30.598Z,5.07
2022-08-10T01:05:02.278Z,4.70
2022-08-10T01:08:05.985Z,5.17
2022-08-10T01:10:51.121Z,5.10
2022-08-10T01:13:25.861Z,5.07
2022-08-10T01:16:00.340Z,5.07
2022-08-10T01:18:39.808Z,4.83
2022-08-10T01:21:38.920Z,5.07
2022-08-10T01:24:44.117Z,4.87
2022-08-10T01:27:27.112Z,5.30
2022-08-10T01:30:06.074Z,5.47
2022-08-10T01:32:42.207Z,5.40
2022-08-10T01:35:15.983Z,5.40
2022-08-10T01:37:52.571Z,5.00
2022-08-10T01:40:26.013Z,5.50
2022-08-10T01:43:08.021Z,5.20
2022-08-10T01:45:44.767Z,5.43
2022-08-10T01:48:31.563Z,6.00
2022-08-10T01:51:10.306Z,5.40
2022-08-10T01:53:44.008Z,5.57
2022-08-10T01:56:15.505Z,5.53
2022-08-10T01:58:47.506Z,5.87
2022-08-10T02:01:21.090Z,5.60
2022-08-10T02:04:03.494Z,5.90
2022-08-10T02:06:37.618Z,5.70
2022-08-10T02:09:08.046Z,6.30
2022-08-10T02:12:05.300Z,5.37
2022-08-10T02:14:33.911Z,6.30
2022-08-10T02:17:08.916Z,5.83
2022-08-10T02:19:40.952Z,5.93
2022-08-10T02:22:37.971Z,5.63
2022-08-10T02:25:02.865Z,5.60
2022-08-10T02:27:31.941Z,5.40
2022-08-10T02:30:01.397Z,5.60
2022-08-10T02:32:38.123Z,5.70
2022-08-10T02:35:21.984Z,5.93
2022-08-10T02:37:54.002Z,5.97
2022-08-10T02:45:02.778Z,5.30
2022-08-10T02:45:21.099Z,5.77
2022-08-10T02:46:14.156Z,5.63
2022-08-10T02:48:51.221Z,5.63
2022-08-10T02:52:06.724Z,5.87
2022-08-10T02:54:21.363Z,6.23
2022-08-10T02:56:56.618Z,5.67
2022-08-10T02:59:28.920Z,5.70
2022-08-10T03:02:13.114Z,5.90
2022-08-10T03:04:55.303Z,5.60
2022-08-10T03:07:43.559Z,6.17
2022-08-10T03:10:16.071Z,5.77
2022-08-10T03:12:45.942Z,5.60
2022-08-10T03:15:16.085Z,5.80
2022-08-10T03:17:56.759Z,5.77
2022-08-10T03:20:38.373Z,5.83
2022-08-10T03:23:12.239Z,6.17
2022-08-10T03:25:41.041Z,5.63
2022-08-10T03:28:22.599Z,5.33
2022-08-10T03:30:51.218Z,6.23
2022-08-10T03:33:21.355Z,6.40
2022-08-10T03:36:40.728Z,5.63
2022-08-10T03:38:40.518Z,5.53
2022-08-10T03:41:16.278Z,5.53
2022-08-10T03:43:49.230Z,6.20
2022-08-10T03:46:20.806Z,5.87
2022-08-10T03:48:53.089Z,6.07
2022-08-10T03:51:24.218Z,6.27
2022-08-10T03:54:04.221Z,5.73
2022-08-10T03:56:37.448Z,6.50
2022-08-10T03:59:07.136Z,6.13
2022-08-10T04:02:46.142Z,6.00
2022-08-10T04:04:25.346Z,6.30
2022-08-10T04:06:59.030Z,5.63
2022-08-10T04:09:42.801Z,5.50
2022-08-10T04:12:17.587Z,5.97
2022-08-10T04:14:49.713Z,5.50
2022-08-10T04:17:57.032Z,5.80
2022-08-10T04:20:15.015Z,5.83
2022-08-10T04:22:45.783Z,6.53
2022-08-10T04:25:15.896Z,5.90
2022-08-10T04:27:45.023Z,5.63
2022-08-10T04:30:13.684Z,5.67
2022-08-10T04:32:44.337Z,6.03
2022-08-10T04:35:14.291Z,5.63
2022-08-10T04:37:47.402Z,6.03
2022-08-10T04:40:28.401Z,5.93
2022-08-10T04:43:08.948Z,5.60
2022-08-10T04:45:47.537Z,5.90
2022-08-10T04:48:40.466Z,5.77
2022-08-10T04:51:10.740Z,5.77
2022-08-10T04:54:05.222Z,6.07
2022-08-10T04:56:33.152Z,6.00
2022-08-10T04:59:01.470Z,6.53
2022-08-10T05:02:22.282Z,6.17
2022-08-10T05:04:35.021Z,5.87
2022-08-10T05:07:07.977Z,6.17
2022-08-10T05:10:02.109Z,5.70
2022-08-10T05:12:26.146Z,5.47
2022-08-10T05:14:54.669Z,5.00
2022-08-10T05:17:23.711Z,4.87
2022-08-10T05:20:05.073Z,5.10
2022-08-10T05:22:36.541Z,4.87
2022-08-10T05:25:08.413Z,4.33
2022-08-10T05:27:36.624Z,4.17
2022-08-10T05:30:05.866Z,4.40
2022-08-10T05:32:57.508Z,4.57
2022-08-10T05:35:23.704Z,3.97
2022-08-10T05:38:12.020Z,4.00
2022-08-10T05:40:47.226Z,4.37
2022-08-10T05:43:18.728Z,4.17
2022-08-10T05:46:19.330Z,3.80
2022-08-10T05:48:55.889Z,4.80
2022-08-10T05:51:25.540Z,4.43
2022-08-10T05:54:02.804Z,4.17
2022-08-10T05:56:53.372Z,4.00
2022-08-10T06:00:35.179Z,4.17
2022-08-10T06:02:33.485Z,3.63
2022-08-10T06:05:09.751Z,3.97
2022-08-10T06:07:43.712Z,4.40
2022-08-10T06:10:31.669Z,4.23
2022-08-10T06:13:26.650Z,3.93
2022-08-10T06:16:01.613Z,3.53
2022-08-10T06:18:31.151Z,3.50
2022-08-10T06:21:00.718Z,3.70
2022-08-10T06:23:30.135Z,3.37
2022-08-10T06:26:10.545Z,3.47
2022-08-10T06:29:01.907Z,3.90
2022-08-10T06:31:47.558Z,3.60
2022-08-10T06:34:20.223Z,3.83
2022-08-10T06:36:49.115Z,3.20
2022-08-10T06:39:32.906Z,3.93
2022-08-10T06:42:16.512Z,3.43
2022-08-10T06:44:53.298Z,3.30
2022-08-10T06:47:25.163Z,3.50
2022-08-10T06:49:59.669Z,3.40
2022-08-10T06:52:31.702Z,2.83
2022-08-10T06:55:01.445Z,3.40
2022-08-10T06:57:37.270Z,2.90
2022-08-10T07:00:09.498Z,3.50
2022-08-10T07:02:45.143Z,3.73
2022-08-10T07:05:18.113Z,3.30
2022-08-10T07:07:48.026Z,3.30
2022-08-10T07:10:19.750Z,3.50
2022-08-10T07:12:49.828Z,3.10
2022-08-10T07:15:20.707Z,3.10
2022-08-10T07:17:50.137Z,2.73
2022-08-10T07:20:20.518Z,3.00
2022-08-10T07:23:01.108Z,2.70
2022-08-10T07:25:40.504Z,2.60
2022-08-10T07:28:10.405Z,3.20
2022-08-10T07:30:40.939Z,2.60
2022-08-10T07:33:10.670Z,2.70
2022-08-10T07:35:43.444Z,2.80
2022-08-10T07:38:20.556Z,2.40
2022-08-10T07:40:51.849Z,2.40
2022-08-10T07:43:24.373Z,2.53
2022-08-10T07:45:57.669Z,2.30
2022-08-10T07:48:28.731Z,2.30
2022-08-10T07:51:00.213Z,2.33
2022-08-10T07:53:31.620Z,1.80
2022-08-10T07:56:13.398Z,2.20
2022-08-10T07:58:52.661Z,1.90
2022-08-10T08:01:28.894Z,1.97
2022-08-10T08:04:05.871Z,1.77
2022-08-10T08:06:41.679Z,1.90
2022-08-10T08:09:11.213Z,2.00
2022-08-10T08:11:43.588Z,1.87
2022-08-10T08:14:12.978Z,1.93
2022-08-10T08:16:46.756Z,1.97
2022-08-10T08:19:37.974Z,1.90
2022-08-10T08:24:07.656Z,2.00
2022-08-10T08:24:56.086Z,1.80
2022-08-10T08:27:25.598Z,1.97
2022-08-10T08:29:54.630Z,2.23
2022-08-10T08:32:27.064Z,1.93
2022-08-10T08:34:57.502Z,1.70
2022-08-10T08:38:31.882Z,2.13
2022-08-10T08:40:22.260Z,1.70
2022-08-10T08:43:17.993Z,1.70
2022-08-10T08:46:11.757Z,1.90
2022-08-10T08:49:08.855Z,1.80
2022-08-10T08:52:07.298Z,1.80
2022-08-10T08:54:49.557Z,1.77
2022-08-10T08:57:49.788Z,1.73
2022-08-10T09:00:20.853Z,1.57
2022-08-10T09:03:08.581Z,1.80
2022-08-10T09:05:59.420Z,1.60
2022-08-10T09:09:16.501Z,1.30
2022-08-10T09:12:00.936Z,1.10
2022-08-10T09:14:38.216Z,1.15
2022-08-10T09:17:16.629Z,1.20
2022-08-10T09:19:49.683Z,1.20
2022-08-10T09:22:30.570Z,1.40
2022-08-10T09:25:09.515Z,1.20
2022-08-10T09:27:43.529Z,1.40
2022-08-10T09:30:16.242Z,1.30
2022-08-10T09:36:15.533Z,1.60
2022-08-10T09:36:21.771Z,1.55
2022-08-10T09:38:49.902Z,1.80
2022-08-10T09:41:32.419Z,1.48
2022-08-10T09:44:09.841Z,1.40
2022-08-10T09:46:50.854Z,1.48
2022-08-10T09:49:52.777Z,1.60
2022-08-10T09:52:22.756Z,1.80
2022-08-10T09:55:08.294Z,2.00
2022-08-10T09:57:46.594Z,1.80
2022-08-10T10:00:17.672Z,1.75
2022-08-10T10:03:02.860Z,1.90
2022-08-10T10:05:51.416Z,1.60
2022-08-10T10:08:33.496Z,1.40
2022-08-10T10:11:20.922Z,1.70
2022-08-10T10:14:02.909Z,1.80
2022-08-10T10:16:47.790Z,1.60
2022-08-10T10:19:47.435Z,1.67
2022-08-10T10:22:43.751Z,1.83
2022-08-10T10:25:22.547Z,1.65
2022-08-10T10:28:06.848Z,1.40
2022-08-10T10:30:46.929Z,1.42
2022-08-10T10:33:21.436Z,1.38
2022-08-10T10:35:54.184Z,1.42
2022-08-10T10:38:27.005Z,1.30
2022-08-10T10:41:01.631Z,1.23
2022-08-10T10:43:58.504Z,1.40
2022-08-10T10:46:40.426Z,0.98
2022-08-10T10:49:17.709Z,1.33
2022-08-10T10:51:52.704Z,1.40
2022-08-10T10:54:28.959Z,1.10
2022-08-10T10:57:06.896Z,1.20
2022-08-10T10:59:56.402Z,1.35
2022-08-10T11:02:42.162Z,1.27
2022-08-10T11:05:19.549Z,1.25
2022-08-10T11:07:54.932Z,1.40
2022-08-10T11:10:32.677Z,1.38
2022-08-10T11:14:25.983Z,1.50
2022-08-10T11:16:25.788Z,1.40
2022-08-10T11:18:59.427Z,1.50
2022-08-10T11:21:44.510Z,1.70
2022-08-10T11:24:47.212Z,1.50
2022-08-10T11:27:22.097Z,1.40
2022-08-10T11:30:01.669Z,1.30
2022-08-10T11:32:42.275Z,1.23
2022-08-10T11:35:21.382Z,2.05
2022-08-10T11:38:32.816Z,1.30
2022-08-10T11:40:54.249Z,1.30
2022-08-10T11:43:27.232Z,0.95
2022-08-10T11:46:07.996Z,1.48
2022-08-10T11:48:54.067Z,1.10
2022-08-10T11:51:29.758Z,0.90
2022-08-10T11:54:05.816Z,1.00
2022-08-10T11:56:53.610Z,1.10
2022-08-10T11:59:43.883Z,1.08
2022-08-10T12:02:16.609Z,1.20
2022-08-10T12:04:51.768Z,1.00
2022-08-10T12:10:06.683Z,1.13
2022-08-10T12:10:13.852Z,1.23
2022-08-10T12:12:51.811Z,1.00
2022-08-10T12:15:26.802Z,1.10
2022-08-10T12:17:59.435Z,1.10
2022-08-10T12:20:31.746Z,1.13
2022-08-10T12:23:09.251Z,1.40
2022-08-10T12:25:56.228Z,1.10
2022-08-10T12:28:51.148Z,1.30
2022-08-10T12:31:26.144Z,0.98
2022-08-10T12:34:07.182Z,1.13
2022-08-10T12:36:42.157Z,1.15
2022-08-10T12:39:17.605Z,1.30
2022-08-10T12:41:52.561Z,1.25
2022-08-10T12:44:41.258Z,1.52
2022-08-10T12:47:21.212Z,1.02
2022-08-10T12:50:30.910Z,1.10
2022-08-10T12:52:57.950Z,1.10
2022-08-10T12:55:28.925Z,1.20
2022-08-10T12:58:00.107Z,1.20
2022-08-10T13:00:31.965Z,1.20
2022-08-10T13:03:01.696Z,1.23
2022-08-10T13:06:00.375Z,1.30
2022-08-10T13:08:40.538Z,1.20
2022-08-10T13:12:14.250Z,1.60
2022-08-10T13:14:07.958Z,1.50
2022-08-10T13:16:37.751Z,1.30
2022-08-10T13:19:08.106Z,1.20
2022-08-10T13:21:39.648Z,1.40
2022-08-10T13:24:12.973Z,1.10
2022-08-10T13:27:11.695Z,1.40
2022-08-10T13:29:37.676Z,1.70
2022-08-10T13:32:11.206Z,1.20
2022-08-10T13:34:45.694Z,1.20
2022-08-10T13:37:16.904Z,1.27
2022-08-10T13:39:59.056Z,1.25
2022-08-10T13:42:32.601Z,1.20
2022-08-10T13:45:08.290Z,1.10
2022-08-10T13:47:49.064Z,0.90
2022-08-10T13:50:34.934Z,1.10
2022-08-10T13:53:14.264Z,1.10
2022-08-10T13:55:55.148Z,0.93
2022-08-10T13:58:27.360Z,1.20
2022-08-10T14:00:57.075Z,1.20
2022-08-10T14:03:26.899Z,1.00
2022-08-10T14:05:57.245Z,1.38
2022-08-10T14:08:28.459Z,1.60
2022-08-10T14:11:11.050Z,1.60
2022-08-10T14:13:45.519Z,1.73
2022-08-10T14:16:14.788Z,1.40
2022-08-10T14:18:45.809Z,1.70
2022-08-10T14:21:14.716Z,1.88
2022-08-10T14:23:53.273Z,2.00
2022-08-10T14:26:26.658Z,1.70
2022-08-10T14:28:58.279Z,1.67
2022-08-10T14:31:34.009Z,1.80
2022-08-10T14:34:05.538Z,1.80
2022-08-10T14:36:42.173Z,1.70
2022-08-10T14:39:15.841Z,1.77
2022-08-10T14:42:03.260Z,1.55
2022-08-10T14:44:46.791Z,1.70
2022-08-10T14:47:53.830Z,1.60
2022-08-10T14:50:07.594Z,2.03
2022-08-10T14:52:44.081Z,2.17
2022-08-10T14:55:19.645Z,1.75
2022-08-10T14:58:19.269Z,1.95
2022-08-10T15:00:43.139Z,1.80
2022-08-10T15:04:01.001Z,1.60
2022-08-10T15:06:17.213Z,1.55
2022-08-10T15:08:47.623Z,1.80
2022-08-10T15:12:13.816Z,1.58
2022-08-10T15:14:41.390Z,1.75
2022-08-10T15:16:59.522Z,1.88
2022-08-10T15:20:03.512Z,1.67
2022-08-10T15:22:37.076Z,1.83
2022-08-10T15:25:18.764Z,1.80
2022-08-10T15:27:53.808Z,1.90
2022-08-10T15:30:29.837Z,1.90
2022-08-10T15:33:21.383Z,2.45
2022-08-10T15:36:25.936Z,2.22
2022-08-10T15:39:00.466Z,2.35
2022-08-10T15:41:58.834Z,1.90
2022-08-10T15:44:37.798Z,1.80
2022-08-10T15:47:10.827Z,1.90
2022-08-10T15:49:51.885Z,2.00
2022-08-10T15:52:39.423Z,1.83
2022-08-10T15:55:43.219Z,1.90
2022-08-10T15:58:08.667Z,1.92
2022-08-10T16:00:45.256Z,1.63
2022-08-10T16:03:24.165Z,1.60
2022-08-10T16:06:01.702Z,1.48
2022-08-10T16:08:55.745Z,1.90
2022-08-10T16:11:37.367Z,5.00
2022-08-10T16:14:13.891Z,2.53
2022-08-10T16:16:46.717Z,2.50
2022-08-10T16:19:23.851Z,1.85
2022-08-10T16:22:00.991Z,1.80
2022-08-10T16:24:34.277Z,1.80
2022-08-10T16:27:07.304Z,1.90
2022-08-10T16:29:55.858Z,1.98
2022-08-10T16:32:26.367Z,1.50
2022-08-10T16:34:57.614Z,1.60
2022-08-10T16:37:58.017Z,1.95
2022-08-10T16:40:25.038Z,1.70
2022-08-10T16:42:54.458Z,1.70
2022-08-10T16:45:30.595Z,1.77
2022-08-10T16:48:00.030Z,1.80
2022-08-10T16:50:31.987Z,1.98
2022-08-10T16:53:03.274Z,1.75
2022-08-10T16:55:48.158Z,1.90
2022-08-10T16:58:21.823Z,1.88
2022-08-10T17:00:52.179Z,1.80
2022-08-10T17:04:07.086Z,1.77
2022-08-10T17:06:24.664Z,1.63
2022-08-10T17:08:55.477Z,1.70
2022-08-10T17:11:28.893Z,1.92
2022-08-10T17:13:58.865Z,1.90
2022-08-10T17:16:33.639Z,2.28
2022-08-10T17:19:03.308Z,1.80
2022-08-10T17:21:51.659Z,1.70
2022-08-10T17:24:23.969Z,1.90
2022-08-10T17:26:52.851Z,2.13
2022-08-10T17:29:58.446Z,2.20
2022-08-10T17:32:25.268Z,2.30
2022-08-10T17:34:58.535Z,2.28
2022-08-10T17:37:33.791Z,2.25
2022-08-10T17:40:06.920Z,2.55
2022-08-10T17:42:36.508Z,1.98
2022-08-10T17:45:06.071Z,2.35
2022-08-10T17:47:35.882Z,2.28
2022-08-10T17:50:04.625Z,2.70
2022-08-10T17:52:34.749Z,2.20
2022-08-10T17:55:06.237Z,2.63
2022-08-10T17:57:38.575Z,2.60
2022-08-10T18:00:10.821Z,2.30
2022-08-10T18:02:41.665Z,2.75
2022-08-10T18:05:11.362Z,2.30
2022-08-10T18:07:46.512Z,2.45
2022-08-10T18:10:18.773Z,2.58
2022-08-10T18:12:50.417Z,2.60
2022-08-10T18:15:23.082Z,2.67
2022-08-10T18:17:59.250Z,2.10
2022-08-10T18:20:34.725Z,2.30
2022-08-10T18:23:06.069Z,2.57
2022-08-10T18:25:38.527Z,2.80
2022-08-10T18:28:11.701Z,2.33
2022-08-10T18:30:48.164Z,2.17
2022-08-10T18:33:18.776Z,2.57
2022-08-10T18:35:49.009Z,2.77
2022-08-10T18:38:21.466Z,2.50
2022-08-10T18:40:54.214Z,2.70
2022-08-10T18:44:11.231Z,2.60
2022-08-10T18:46:21.128Z,2.83
2022-08-10T18:48:54.150Z,3.00
2022-08-10T18:51:27.339Z,2.77
2022-08-10T18:54:03.196Z,3.00
2022-08-10T18:56:49.206Z,3.07
2022-08-10T19:00:07.521Z,3.13
2022-08-10T19:02:48.245Z,2.83
2022-08-10T19:05:30.653Z,3.00
2022-08-10T19:08:31.321Z,2.97
2022-08-10T19:11:06.662Z,3.77
2022-08-10T19:13:48.944Z,3.67
2022-08-10T19:16:27.101Z,3.60
2022-08-10T19:19:21.636Z,3.50
2022-08-10T19:22:01.135Z,4.40
2022-08-10T19:24:39.536Z,3.90
2022-08-10T19:27:15.447Z,4.20
2022-08-10T19:30:00.940Z,4.50
2022-08-10T19:33:01.346Z,4.23
2022-08-10T19:36:03.200Z,4.27
2022-08-10T19:38:37.155Z,3.40
2022-08-10T19:41:32.138Z,4.07
2022-08-10T19:44:13.561Z,3.97
2022-08-10T19:46:49.041Z,4.30
2022-08-10T19:49:25.104Z,4.53
2022-08-10T19:52:00.541Z,4.30
2022-08-10T19:54:55.890Z,4.77
2022-08-10T19:57:34.422Z,4.20
2022-08-10T20:00:18.491Z,4.27
2022-08-10T20:03:11.953Z,4.20
2022-08-10T20:06:13.283Z,4.27
2022-08-10T20:08:47.373Z,4.00
2022-08-10T20:11:46.178Z,4.23
2022-08-10T20:14:21.329Z,4.23
2022-08-10T20:16:58.891Z,4.50
2022-08-10T20:19:53.531Z,4.50
2022-08-10T20:22:29.068Z,4.83
2022-08-10T20:25:03.574Z,4.80
2022-08-10T20:27:57.651Z,5.23
2022-08-10T20:30:30.413Z,5.23
2022-08-10T20:33:10.350Z,4.47
2022-08-10T20:35:49.730Z,5.07
2022-08-10T20:38:27.195Z,4.70
2022-08-10T20:41:09.464Z,4.97
2022-08-10T20:43:46.666Z,4.47
2022-08-10T20:46:23.654Z,5.03
2022-08-10T20:48:59.611Z,4.83
2022-08-10T20:51:58.696Z,5.07
2022-08-10T20:54:23.578Z,4.97
2022-08-10T20:57:56.206Z,4.87
2022-08-10T21:00:07.425Z,4.70
2022-08-10T21:03:06.602Z,4.90
2022-08-10T21:05:54.258Z,5.40
2022-08-10T21:08:36.823Z,4.70
2022-08-10T21:11:18.703Z,4.77
2022-08-10T21:14:01.910Z,4.83
2022-08-10T21:16:55.369Z,5.07
2022-08-10T21:19:56.499Z,4.90
2022-08-10T21:22:31.599Z,5.33
2022-08-10T21:25:05.164Z,4.60
2022-08-10T21:27:58.240Z,4.97
2022-08-10T21:30:34.902Z,5.10
2022-08-10T21:33:07.929Z,5.00
2022-08-10T21:35:42.541Z,4.47
2022-08-10T21:38:21.561Z,4.63
2022-08-10T21:41:57.013Z,5.30
2022-08-10T21:44:42.618Z,4.67
2022-08-10T21:48:07.146Z,5.10
2022-08-10T21:50:49.948Z,4.67
2022-08-10T21:53:45.439Z,4.67
2022-08-10T21:56:38.756Z,4.87
2022-08-10T21:59:29.274Z,5.53
2022-08-10T22:02:28.384Z,4.87
2022-08-10T22:05:20.224Z,4.37
2022-08-10T22:08:12.158Z,4.30
2022-08-10T22:11:05.491Z,4.70
2022-08-10T22:13:56.021Z,5.10
2022-08-10T22:16:48.593Z,4.53
2022-08-10T22:19:38.193Z,4.57
2022-08-10T22:22:28.611Z,4.23
2022-08-10T22:25:24.856Z,4.47
2022-08-10T22:31:28.267Z,4.23
2022-08-10T22:34:33.575Z,3.97
2022-08-10T22:37:37.626Z,4.20
2022-08-10T22:40:29.536Z,3.93
2022-08-10T22:43:35.207Z,4.30
2022-08-10T22:46:30.918Z,4.40
2022-08-10T22:49:01.091Z,3.90
2022-08-10T22:51:51.468Z,3.63
2022-08-10T22:54:44.901Z,4.53
2022-08-10T22:57:32.408Z,4.40
2022-08-10T23:00:13.056Z,4.40
2022-08-10T23:02:46.927Z,3.80
2022-08-10T23:05:17.083Z,4.00
2022-08-10T23:07:48.684Z,4.10
2022-08-10T23:10:22.461Z,4.57
2022-08-10T23:12:57.797Z,4.73
2022-08-10T23:15:48.758Z,4.73
2022-08-10T23:18:45.660Z,4.30
2022-08-10T23:21:16.421Z,3.97
2022-08-10T23:23:47.485Z,4.30
2022-08-10T23:26:23.183Z,4.33
2022-08-10T23:28:58.582Z,4.07
2022-08-10T23:32:01.428Z,3.97
2022-08-10T23:34:26.285Z,4.50
2022-08-10T23:36:57.190Z,4.73
2022-08-10T23:39:32.573Z,4.20
2022-08-10T23:42:07.493Z,4.33
2022-08-10T23:44:44.185Z,4.10
2022-08-10T23:47:18.632Z,4.30
2022-08-10T23:49:50.098Z,4.50
2022-08-10T23:52:21.899Z,4.27
2022-08-10T23:54:53.921Z,4.57
2022-08-10T23:57:23.858Z,4.27
2022-08-10T23:59:55.069Z,4.07
